Clayton, Alabama
Current Conditions -  °F | °C
As of 2:58 AM on Friday 31 Oct 2014 (Local Time) from KEUF Reporting Station
Clear Clear  
Wind Chill: 41°   Ceiling: Unl
Heat Index: 41°   Visibility: NA
Dew Point: 39°   Wind: 0mph
Humidity: 93%   Direction: NA
Pressure: 29.95"   Gusts: NA
Location:  31.88°N, 85.45°W
Report Text: KEUF 310758Z AUTO 00000KT CLR 05/04 A2995 RMK AO2 SLP140 T00500039 $
Loading
Personal Weather Stations






























Interactive Weather Map
Tropical Storm Tracking
New forecast layout! Learn more

10-Day Weather Forecast

Advertisements
Track Severe Weather on mobile